createdAt,value
2022-09-09T00:03:21.000Z,1.8
2022-09-09T00:06:54.000Z,1.8
2022-09-09T00:10:26.000Z,2.2
2022-09-09T00:13:18.000Z,1.6
2022-09-09T00:16:50.000Z,1.4
2022-09-09T00:20:23.000Z,1.4
2022-09-09T00:23:56.000Z,1.6
2022-09-09T00:27:28.000Z,1.8
2022-09-09T00:31:01.000Z,1.5
2022-09-09T00:34:33.000Z,1.7
2022-09-09T00:38:06.000Z,1.7
2022-09-09T00:41:39.000Z,1.4
2022-09-09T00:45:11.000Z,1.7
2022-09-09T00:48:44.000Z,1.6
2022-09-09T00:51:35.000Z,1.4
2022-09-09T00:55:08.000Z,1.8
2022-09-09T00:58:40.000Z,2
2022-09-09T01:02:13.000Z,1.8
2022-09-09T01:05:46.000Z,1.3
2022-09-09T01:09:18.000Z,1.6
2022-09-09T01:12:51.000Z,1.4
2022-09-09T01:16:24.000Z,1.8
2022-09-09T01:19:56.000Z,2
2022-09-09T01:23:29.000Z,1.9
2022-09-09T01:27:01.000Z,1.5
2022-09-09T01:29:53.000Z,1.9
2022-09-09T01:33:25.000Z,1.6
2022-09-09T01:36:58.000Z,1.7
2022-09-09T01:40:31.000Z,1.6
2022-09-09T01:44:03.000Z,2
2022-09-09T01:47:36.000Z,2
2022-09-09T01:51:09.000Z,1.6
2022-09-09T01:54:41.000Z,1.9
2022-09-09T01:58:14.000Z,1.9
2022-09-09T02:01:47.000Z,2.1
2022-09-09T02:05:20.000Z,2
2022-09-09T02:08:11.000Z,2.1
2022-09-09T02:11:43.000Z,2.1
2022-09-09T02:15:16.000Z,2
2022-09-09T02:18:49.000Z,1.7
2022-09-09T02:22:21.000Z,1.9
2022-09-09T02:25:54.000Z,2.1
2022-09-09T02:29:26.000Z,2.1
2022-09-09T02:32:59.000Z,2.1
2022-09-09T02:36:32.000Z,2.2
2022-09-09T02:40:04.000Z,2
2022-09-09T02:43:37.000Z,2.2
2022-09-09T02:46:28.000Z,2
2022-09-09T02:50:01.000Z,2.1
2022-09-09T02:53:34.000Z,1.8
2022-09-09T02:57:06.000Z,2.3
2022-09-09T03:00:39.000Z,2.7
2022-09-09T03:04:11.000Z,1.7
2022-09-09T03:07:44.000Z,2.1
2022-09-09T03:11:17.000Z,2.1
2022-09-09T03:14:49.000Z,1.8
2022-09-09T03:18:22.000Z,2
2022-09-09T03:21:55.000Z,1.9
2022-09-09T03:24:46.000Z,1.8
2022-09-09T03:28:18.000Z,1.9
2022-09-09T03:31:51.000Z,1.7
2022-09-09T03:35:24.000Z,1.7
2022-09-09T03:38:56.000Z,2.1
2022-09-09T03:42:29.000Z,1.8
2022-09-09T03:46:01.000Z,1.9
2022-09-09T03:49:34.000Z,1.8
2022-09-09T03:53:07.000Z,1.7
2022-09-09T03:56:40.000Z,1.7
2022-09-09T04:00:12.000Z,1.4
2022-09-09T04:03:03.000Z,1.6
2022-09-09T04:06:36.000Z,1.7
2022-09-09T04:10:09.000Z,1.7
2022-09-09T04:13:41.000Z,1.7
2022-09-09T04:17:14.000Z,1.7
2022-09-09T04:20:47.000Z,2
2022-09-09T04:24:19.000Z,2.2
2022-09-09T04:27:52.000Z,1.4
2022-09-09T04:31:24.000Z,1.6
2022-09-09T04:34:57.000Z,1.8
2022-09-09T04:38:30.000Z,1.7
2022-09-09T04:41:21.000Z,1.7
2022-09-09T04:44:54.000Z,1.5
2022-09-09T04:48:26.000Z,1.7
2022-09-09T04:51:59.000Z,1.8
2022-09-09T04:55:32.000Z,1.8
2022-09-09T04:59:04.000Z,1.9
2022-09-09T05:02:37.000Z,2
2022-09-09T05:06:10.000Z,2.2
2022-09-09T05:09:42.000Z,2.3
2022-09-09T05:13:15.000Z,2.6
2022-09-09T05:16:47.000Z,2.3
2022-09-09T05:19:38.000Z,1.9
2022-09-09T05:23:11.000Z,2.3
2022-09-09T05:26:44.000Z,1.9
2022-09-09T05:30:16.000Z,2.4
2022-09-09T05:33:49.000Z,2.5
2022-09-09T05:37:22.000Z,2
2022-09-09T05:40:54.000Z,3.1
2022-09-09T05:44:27.000Z,2.1
2022-09-09T05:47:59.000Z,2.5
2022-09-09T05:51:32.000Z,2
2022-09-09T05:55:05.000Z,1.9
2022-09-09T05:57:56.000Z,2.3
2022-09-09T06:01:29.000Z,2.3
2022-09-09T06:05:02.000Z,1.6
2022-09-09T06:08:34.000Z,1.9
2022-09-09T06:12:07.000Z,2.4
2022-09-09T06:15:39.000Z,2.3
2022-09-09T06:19:12.000Z,2.3
2022-09-09T06:22:45.000Z,2.6
2022-09-09T06:26:17.000Z,2.2
2022-09-09T06:29:50.000Z,2.5
2022-09-09T06:33:28.000Z,1.9
2022-09-09T06:36:19.000Z,2
2022-09-09T06:39:52.000Z,2.3
2022-09-09T06:43:24.000Z,2.4
2022-09-09T06:46:57.000Z,2.1
2022-09-09T06:50:30.000Z,2.5
2022-09-09T06:54:02.000Z,2.8
2022-09-09T06:57:35.000Z,3
2022-09-09T07:01:07.000Z,3.2
2022-09-09T07:04:40.000Z,2.9
2022-09-09T07:08:13.000Z,2.9
2022-09-09T07:11:45.000Z,2.6
2022-09-09T07:14:36.000Z,2.7
2022-09-09T07:18:09.000Z,3.1
2022-09-09T07:21:42.000Z,2.4
2022-09-09T07:25:14.000Z,2
2022-09-09T07:28:47.000Z,2.2
2022-09-09T07:32:26.000Z,2.1
2022-09-09T07:35:59.000Z,2.2
2022-09-09T07:39:31.000Z,2.7
2022-09-09T07:43:04.000Z,2.8
2022-09-09T07:46:42.000Z,2.8
2022-09-09T07:50:15.000Z,2.8
2022-09-09T07:53:05.000Z,2.6
2022-09-09T07:56:38.000Z,2.7
2022-09-09T08:00:11.000Z,2.7
2022-09-09T08:03:43.000Z,2.5
2022-09-09T08:07:21.000Z,2.3
2022-09-09T08:10:54.000Z,3
2022-09-09T08:14:27.000Z,2.6
2022-09-09T08:17:59.000Z,2.6
2022-09-09T08:21:32.000Z,2.2
2022-09-09T08:25:04.000Z,2.1
2022-09-09T08:28:37.000Z,2.1
2022-09-09T08:31:28.000Z,2.2
2022-09-09T08:35:01.000Z,2.3
2022-09-09T08:38:33.000Z,2
2022-09-09T08:42:06.000Z,2.5
2022-09-09T08:45:39.000Z,2.2
2022-09-09T08:49:11.000Z,1.7
2022-09-09T08:52:44.000Z,1.9
2022-09-09T08:56:40.000Z,1.7
2022-09-09T09:00:12.000Z,2
2022-09-09T09:03:45.000Z,2
2022-09-09T09:07:18.000Z,1.9
2022-09-09T09:10:16.000Z,2
2022-09-09T09:14:06.000Z,1.8
2022-09-09T09:17:38.000Z,2.1
2022-09-09T09:21:11.000Z,2.1
2022-09-09T09:24:44.000Z,2
2022-09-09T09:28:16.000Z,2.1
2022-09-09T09:32:09.000Z,2.4
2022-09-09T09:35:42.000Z,2
2022-09-09T09:43:17.000Z,2.1
2022-09-09T09:46:50.000Z,1.9
2022-09-09T09:49:41.000Z,2.3
2022-09-09T09:53:14.000Z,2
2022-09-09T09:56:46.000Z,2
2022-09-09T10:00:19.000Z,1.9
2022-09-09T10:03:52.000Z,1.7
2022-09-09T10:07:26.000Z,2.2
2022-09-09T10:10:58.000Z,1.9
2022-09-09T10:14:31.000Z,1.9
2022-09-09T10:18:04.000Z,2
2022-09-09T10:21:37.000Z,2
2022-09-09T10:25:09.000Z,2.1
2022-09-09T10:28:00.000Z,1.7
2022-09-09T10:31:33.000Z,1.9
2022-09-09T10:35:06.000Z,2.1
2022-09-09T10:38:38.000Z,1.7
2022-09-09T10:42:11.000Z,2
2022-09-09T10:45:44.000Z,1.7
2022-09-09T10:49:16.000Z,1.4
2022-09-09T10:53:03.000Z,1.8
2022-09-09T10:56:36.000Z,1.6
2022-09-09T11:00:08.000Z,2.3
2022-09-09T11:03:41.000Z,1.8
2022-09-09T11:06:32.000Z,1.8
2022-09-09T11:10:05.000Z,2.1
2022-09-09T11:13:38.000Z,1.6
2022-09-09T11:17:10.000Z,1.2
2022-09-09T11:20:43.000Z,1.6
2022-09-09T11:24:16.000Z,1.4
2022-09-09T11:27:49.000Z,1.3
2022-09-09T11:31:21.000Z,1.2
2022-09-09T11:34:54.000Z,1
2022-09-09T11:38:27.000Z,1.2
2022-09-09T11:42:00.000Z,1.4
2022-09-09T11:44:51.000Z,1.3
2022-09-09T11:48:24.000Z,1
2022-09-09T11:51:57.000Z,1.6
2022-09-09T11:55:30.000Z,1.1
2022-09-09T11:59:02.000Z,1.3
2022-09-09T12:02:35.000Z,1.2
2022-09-09T12:06:07.000Z,1.2
2022-09-09T12:09:40.000Z,1.5
2022-09-09T12:13:13.000Z,1.4
2022-09-09T12:16:45.000Z,1.2
2022-09-09T12:20:18.000Z,1.7
2022-09-09T12:23:09.000Z,1.4
2022-09-09T12:26:42.000Z,1
2022-09-09T12:30:14.000Z,0.9
2022-09-09T12:33:47.000Z,1.1
2022-09-09T12:37:20.000Z,1.1
2022-09-09T12:40:52.000Z,1
2022-09-09T12:44:25.000Z,1.2
2022-09-09T12:47:57.000Z,1.1
2022-09-09T12:51:30.000Z,1.1
2022-09-09T12:55:03.000Z,1.2
2022-09-09T12:58:35.000Z,0.8
2022-09-09T13:01:26.000Z,0.8
2022-09-09T13:04:59.000Z,0.9
2022-09-09T13:08:32.000Z,1.2
2022-09-09T13:12:06.000Z,1.1
2022-09-09T13:15:39.000Z,1.1
2022-09-09T13:19:12.000Z,1.1
2022-09-09T13:22:44.000Z,1.2
2022-09-09T13:26:17.000Z,1.1
2022-09-09T13:29:50.000Z,1
2022-09-09T13:33:23.000Z,1.2
2022-09-09T13:36:55.000Z,1.1
2022-09-09T13:39:47.000Z,1.3
2022-09-09T13:43:19.000Z,0.9
2022-09-09T13:46:52.000Z,1.1
2022-09-09T13:50:25.000Z,1
2022-09-09T13:53:57.000Z,1.1
2022-09-09T13:57:30.000Z,1.2
2022-09-09T14:01:03.000Z,1.2
2022-09-09T14:04:36.000Z,1.3
2022-09-09T14:08:09.000Z,0.9
2022-09-09T14:11:42.000Z,1
2022-09-09T14:15:14.000Z,1.1
2022-09-09T14:18:06.000Z,1
2022-09-09T14:21:38.000Z,1
2022-09-09T14:25:11.000Z,1.1
2022-09-09T14:28:44.000Z,1.1
2022-09-09T14:32:21.000Z,1.2
2022-09-09T14:35:53.000Z,0.9
2022-09-09T14:39:26.000Z,0.8
2022-09-09T14:42:59.000Z,0.6
2022-09-09T14:46:31.000Z,0.6
2022-09-09T14:50:04.000Z,0.7
2022-09-09T14:53:37.000Z,0.6
2022-09-09T14:56:28.000Z,0.9
2022-09-09T15:00:01.000Z,0.6
2022-09-09T15:03:33.000Z,0.7
2022-09-09T15:07:06.000Z,0.7
2022-09-09T15:10:41.000Z,0.5
2022-09-09T15:14:14.000Z,0.8
2022-09-09T15:17:50.000Z,0.8
2022-09-09T15:21:23.000Z,0.5
2022-09-09T15:24:56.000Z,0.6
2022-09-09T15:28:29.000Z,0.8
2022-09-09T15:32:01.000Z,0.8
2022-09-09T15:34:53.000Z,0.8
2022-09-09T15:38:25.000Z,0.6
2022-09-09T15:41:58.000Z,0.7
2022-09-09T15:45:31.000Z,0.6
2022-09-09T15:49:03.000Z,0.5
2022-09-09T15:52:36.000Z,0.8
2022-09-09T15:56:09.000Z,0.7
2022-09-09T15:59:41.000Z,0.6
2022-09-09T16:03:14.000Z,1
2022-09-09T16:06:47.000Z,0.8
2022-09-09T16:10:19.000Z,0.7
2022-09-09T16:13:11.000Z,0.7
2022-09-09T16:16:43.000Z,0.5
2022-09-09T16:20:16.000Z,0.7
2022-09-09T16:23:49.000Z,0.8
2022-09-09T16:27:21.000Z,0.8
2022-09-09T16:30:54.000Z,0.8
2022-09-09T16:34:26.000Z,0.7
2022-09-09T16:37:59.000Z,0.6
2022-09-09T16:41:32.000Z,0.8
2022-09-09T16:45:05.000Z,0.5
2022-09-09T16:48:37.000Z,0.8
2022-09-09T16:51:28.000Z,0.7
2022-09-09T16:55:01.000Z,0.6
2022-09-09T16:58:34.000Z,0.6
2022-09-09T17:02:06.000Z,0.6
2022-09-09T17:05:39.000Z,0.8
2022-09-09T17:09:12.000Z,0.7
2022-09-09T17:12:45.000Z,0.8
2022-09-09T17:16:17.000Z,0.8
2022-09-09T17:19:50.000Z,0.9
2022-09-09T17:23:23.000Z,0.8
2022-09-09T17:26:55.000Z,0.7
2022-09-09T17:29:47.000Z,0.7
2022-09-09T17:33:20.000Z,0.6
2022-09-09T17:36:52.000Z,0.7
2022-09-09T17:40:27.000Z,0.7
2022-09-09T17:47:32.000Z,0.8
2022-09-09T17:51:05.000Z,1
2022-09-09T17:54:38.000Z,0.8
2022-09-09T17:58:10.000Z,0.7
2022-09-09T18:01:43.000Z,0.9
2022-09-09T18:05:16.000Z,1
2022-09-09T18:08:07.000Z,0.9
2022-09-09T18:11:40.000Z,0.8
2022-09-09T18:15:13.000Z,1.1
2022-09-09T18:19:04.000Z,0.8
2022-09-09T18:22:37.000Z,0.9
2022-09-09T18:26:09.000Z,1.1
2022-09-09T18:29:42.000Z,1
2022-09-09T18:33:15.000Z,1
2022-09-09T18:36:53.000Z,1
2022-09-09T18:40:26.000Z,0.9
2022-09-09T18:43:59.000Z,0.7
2022-09-09T18:46:50.000Z,0.9
2022-09-09T18:50:23.000Z,0.9
2022-09-09T18:53:55.000Z,1.2
2022-09-09T18:57:28.000Z,1.1
2022-09-09T19:01:01.000Z,1.1
2022-09-09T19:04:34.000Z,1.2
2022-09-09T19:08:07.000Z,1
2022-09-09T19:11:40.000Z,1
2022-09-09T19:15:12.000Z,0.9
2022-09-09T19:18:45.000Z,0.9
2022-09-09T19:22:18.000Z,1.2
2022-09-09T19:25:09.000Z,1.1
2022-09-09T19:28:42.000Z,1.1
2022-09-09T19:32:14.000Z,1.2
2022-09-09T19:36:18.000Z,1
2022-09-09T19:39:51.000Z,1.1
2022-09-09T19:43:24.000Z,1.2
2022-09-09T19:46:56.000Z,1.2
2022-09-09T19:50:29.000Z,1.2
2022-09-09T19:54:01.000Z,1.1
2022-09-09T19:57:34.000Z,1.4
2022-09-09T20:01:07.000Z,1.4
2022-09-09T20:03:58.000Z,1.3
2022-09-09T20:07:31.000Z,1.5
2022-09-09T20:11:03.000Z,0.8
2022-09-09T20:14:36.000Z,1.1
2022-09-09T20:18:09.000Z,1.4
2022-09-09T20:21:41.000Z,1.4
2022-09-09T20:25:14.000Z,1.2
2022-09-09T20:28:47.000Z,0.9
2022-09-09T20:32:19.000Z,1.3
2022-09-09T20:35:52.000Z,1.3
2022-09-09T20:39:25.000Z,1.4
2022-09-09T20:42:16.000Z,1.1
2022-09-09T20:45:48.000Z,1.2
2022-09-09T20:49:21.000Z,1
2022-09-09T20:52:53.000Z,1.2
2022-09-09T20:56:26.000Z,0.9
2022-09-09T20:59:59.000Z,1.2
2022-09-09T21:03:31.000Z,1.4
2022-09-09T21:07:04.000Z,0.9
2022-09-09T21:10:37.000Z,1
2022-09-09T21:14:09.000Z,1.2
2022-09-09T21:17:42.000Z,1
2022-09-09T21:20:33.000Z,1.1
2022-09-09T21:24:06.000Z,1.1
2022-09-09T21:27:38.000Z,1.1
2022-09-09T21:31:11.000Z,1
2022-09-09T21:34:44.000Z,0.8
2022-09-09T21:38:16.000Z,0.8
2022-09-09T21:41:49.000Z,0.9
2022-09-09T21:45:22.000Z,0.7
2022-09-09T21:48:55.000Z,0.6
2022-09-09T21:52:27.000Z,0.5
2022-09-09T21:56:00.000Z,0.7
2022-09-09T21:58:51.000Z,0.6
2022-09-09T22:02:24.000Z,0.9
2022-09-09T22:05:56.000Z,0.7
2022-09-09T22:09:29.000Z,0.8
2022-09-09T22:13:02.000Z,0.7
2022-09-09T22:16:34.000Z,0.7
2022-09-09T22:20:07.000Z,0.6
2022-09-09T22:23:39.000Z,0.7
2022-09-09T22:27:12.000Z,0.8
2022-09-09T22:30:45.000Z,0.8
2022-09-09T22:34:17.000Z,0.8
2022-09-09T22:37:09.000Z,0.9
2022-09-09T22:40:41.000Z,1.1
2022-09-09T22:44:14.000Z,1.1
2022-09-09T22:47:47.000Z,1
2022-09-09T22:51:19.000Z,1.1
2022-09-09T22:54:52.000Z,1.2
2022-09-09T22:58:25.000Z,1.2
2022-09-09T23:01:57.000Z,1.2
2022-09-09T23:05:30.000Z,1.1
2022-09-09T23:09:03.000Z,1.3
2022-09-09T23:12:35.000Z,0.9
2022-09-09T23:15:26.000Z,1.3
2022-09-09T23:18:59.000Z,1
2022-09-09T23:22:31.000Z,1
2022-09-09T23:26:04.000Z,1.1
2022-09-09T23:29:37.000Z,1.3
2022-09-09T23:33:09.000Z,0.9
2022-09-09T23:36:42.000Z,0.9
2022-09-09T23:40:15.000Z,1.1
2022-09-09T23:43:47.000Z,1.5
2022-09-09T23:47:20.000Z,1.4
2022-09-09T23:50:53.000Z,1.3
2022-09-09T23:53:44.000Z,1.2
2022-09-09T23:57:16.000Z,1.4
